Time;durP1;ratioP1;P1;durP2;ratioP2;P2;SDS_P1;SDS_P2;PMS_P1;PMS_P2;Temp;Humidity;BMP_temperature;BMP_pressure;BME280_temperature;BME280_humidity;BME280_pressure;Samples;Min_cycle;Max_cycle;Signal;HPM_P1;HPM_P2
2023/11/28 00:01:00;;;;;;;22.92;13.75;;;;;;;;;;12947043;22;20388;-88
2023/11/28 00:06:02;;;;;;;22.27;13.68;;;;;;;;;;12979673;22;20471;-88
2023/11/28 00:11:05;;;;;;;18.02;12.05;;;;;;;;;;12980089;22;20383;-89
2023/11/28 00:16:09;;;;;;;18.90;12.52;;;;;;;;;;12999908;22;20428;-88
2023/11/28 00:21:12;;;;;;;20.43;11.77;;;;;;;;;;12980454;22;20741;-88
2023/11/28 00:26:15;;;;;;;16.77;11.93;;;;;;;;;;13001031;22;20470;-88
2023/11/28 00:31:20;;;;;;;18.10;11.60;;;;;;;;;;12979836;22;20440;-88
2023/11/28 00:36:22;;;;;;;16.17;11.65;;;;;;;;;;12979462;22;20413;-88
2023/11/28 00:41:25;;;;;;;17.73;11.63;;;;;;;;;;13000819;22;20393;-88
2023/11/28 00:46:29;;;;;;;16.60;10.73;;;;;;;;;;12978959;22;20354;-88
2023/11/28 00:51:31;;;;;;;18.70;11.40;;;;;;;;;;12978608;22;20383;-88
2023/11/28 00:56:34;;;;;;;15.70;10.57;;;;;;;;;;13000881;22;20362;-88
2023/11/28 01:01:37;;;;;;;14.17;9.60;;;;;;;;;;12979953;22;21211;-89
2023/11/28 01:06:40;;;;;;;13.65;8.48;;;;;;;;;;13000459;22;20777;-88
2023/11/28 01:11:42;;;;;;;12.97;9.37;;;;;;;;;;13006102;22;20595;-88
2023/11/28 01:16:46;;;;;;;14.43;9.43;;;;;;;;;;12980009;22;20409;-88
2023/11/28 01:21:49;;;;;;;14.68;9.45;;;;;;;;;;13002186;22;20467;-87
2023/11/28 01:26:51;;;;;;;16.40;10.23;;;;;;;;;;13000636;22;20359;-88
2023/11/28 01:31:55;;;;;;;15.13;10.47;;;;;;;;;;12979527;22;20495;-87
2023/11/28 01:36:58;;;;;;;18.70;12.00;;;;;;;;;;12981382;22;20446;-87
2023/11/28 01:42:00;;;;;;;16.88;11.85;;;;;;;;;;12982841;22;20409;-88
2023/11/28 01:47:04;;;;;;;18.40;13.10;;;;;;;;;;12983906;22;20372;-88
2023/11/28 01:52:07;;;;;;;26.75;15.50;;;;;;;;;;13003630;22;20480;-88
2023/11/28 01:57:12;;;;;;;25.03;16.20;;;;;;;;;;12982793;22;20778;-85
2023/11/28 02:02:16;;;;;;;27.57;15.57;;;;;;;;;;12983103;22;20397;-89
2023/11/28 02:07:18;;;;;;;23.73;15.18;;;;;;;;;;12987485;22;20724;-85
2023/11/28 02:12:21;;;;;;;22.30;14.88;;;;;;;;;;12995475;22;20468;-88
2023/11/28 02:17:24;;;;;;;21.67;14.30;;;;;;;;;;12980941;22;20368;-88
2023/11/28 02:22:28;;;;;;;27.70;14.60;;;;;;;;;;12981438;22;20961;-88
2023/11/28 02:27:31;;;;;;;20.83;13.70;;;;;;;;;;13002724;22;20354;-89
2023/11/28 02:32:34;;;;;;;22.27;13.57;;;;;;;;;;12982662;22;20378;-88
2023/11/28 02:37:36;;;;;;;21.98;13.23;;;;;;;;;;12980845;22;21583;-88
2023/11/28 02:42:40;;;;;;;18.73;13.52;;;;;;;;;;13000294;22;20687;-88
2023/11/28 02:47:42;;;;;;;20.45;13.60;;;;;;;;;;12983358;22;20368;-88
2023/11/28 02:52:45;;;;;;;19.90;13.60;;;;;;;;;;12981708;22;20409;-88
2023/11/28 02:57:49;;;;;;;21.08;13.10;;;;;;;;;;12980886;22;20936;-88
2023/11/28 03:02:51;;;;;;;21.20;13.57;;;;;;;;;;12989053;22;20414;-88
2023/11/28 03:07:53;;;;;;;19.10;13.00;;;;;;;;;;13009587;22;20370;-87
2023/11/28 03:12:57;;;;;;;20.13;13.35;;;;;;;;;;12981697;22;20418;-88
2023/11/28 03:18:00;;;;;;;21.48;13.70;;;;;;;;;;12981852;22;20445;-88
2023/11/28 03:23:02;;;;;;;20.10;12.88;;;;;;;;;;12981566;22;20437;-88
2023/11/28 03:28:06;;;;;;;18.83;12.63;;;;;;;;;;12980543;22;20409;-88
2023/11/28 03:33:08;;;;;;;17.77;12.50;;;;;;;;;;12983939;22;20966;-88
2023/11/28 03:38:10;;;;;;;17.87;12.20;;;;;;;;;;12980988;22;20405;-88
2023/11/28 03:43:14;;;;;;;19.30;12.43;;;;;;;;;;12980348;22;20375;-89
2023/11/28 03:48:17;;;;;;;16.58;11.77;;;;;;;;;;13002685;22;20410;-88
2023/11/28 03:53:19;;;;;;;18.17;11.50;;;;;;;;;;12980789;22;20437;-88
2023/11/28 03:58:24;;;;;;;16.47;11.10;;;;;;;;;;13000464;22;20370;-88
2023/11/28 04:03:26;;;;;;;14.88;10.00;;;;;;;;;;12999252;22;20424;-88
2023/11/28 04:08:29;;;;;;;16.53;10.20;;;;;;;;;;12968430;22;20375;-88
2023/11/28 04:13:33;;;;;;;14.43;10.27;;;;;;;;;;12977809;22;20475;-88
2023/11/28 04:18:36;;;;;;;15.87;10.17;;;;;;;;;;12977438;22;20407;-88
2023/11/28 04:23:39;;;;;;;18.37;10.63;;;;;;;;;;12979245;22;20364;-88
2023/11/28 04:28:44;;;;;;;14.50;9.20;;;;;;;;;;12979417;22;20399;-87
2023/11/28 04:33:46;;;;;;;16.80;10.10;;;;;;;;;;12980053;22;20486;-88
2023/11/28 04:38:48;;;;;;;15.50;10.13;;;;;;;;;;12980595;22;20405;-87
2023/11/28 04:43:52;;;;;;;16.83;10.73;;;;;;;;;;12981041;22;20375;-88
2023/11/28 04:48:55;;;;;;;15.63;10.98;;;;;;;;;;12980514;22;20470;-87
2023/11/28 04:53:57;;;;;;;17.30;10.35;;;;;;;;;;13001132;22;20375;-88
2023/11/28 04:59:01;;;;;;;15.83;10.07;;;;;;;;;;12994447;22;20364;-87
2023/11/28 05:04:04;;;;;;;15.77;9.27;;;;;;;;;;12984776;22;20407;-87
2023/11/28 05:09:07;;;;;;;14.13;9.63;;;;;;;;;;13001651;22;20397;-89
2023/11/28 05:14:11;;;;;;;15.13;9.50;;;;;;;;;;12981850;22;20456;-86
2023/11/28 05:19:14;;;;;;;15.55;9.35;;;;;;;;;;12984254;22;20366;-88
2023/11/28 05:24:17;;;;;;;13.40;9.07;;;;;;;;;;12983862;22;20692;-88
2023/11/28 05:29:21;;;;;;;14.77;10.07;;;;;;;;;;12984177;22;20442;-87
2023/11/28 05:34:24;;;;;;;15.93;9.88;;;;;;;;;;12982275;22;20378;-88
2023/11/28 05:39:27;;;;;;;15.60;9.65;;;;;;;;;;13004067;22;20421;-88
2023/11/28 05:44:31;;;;;;;16.20;9.90;;;;;;;;;;12982768;22;20471;-87
2023/11/28 05:49:34;;;;;;;14.23;9.02;;;;;;;;;;12981798;22;20955;-88
2023/11/28 05:54:36;;;;;;;15.80;9.93;;;;;;;;;;12986995;22;20387;-87
2023/11/28 05:59:40;;;;;;;15.13;9.52;;;;;;;;;;12996350;22;20435;-91
2023/11/28 06:04:42;;;;;;;18.40;10.93;;;;;;;;;;12982738;22;20363;-87
2023/11/28 06:09:45;;;;;;;16.08;11.25;;;;;;;;;;12982273;22;20436;-87
2023/11/28 06:14:48;;;;;;;20.17;12.07;;;;;;;;;;12982084;22;20453;-87
2023/11/28 06:19:51;;;;;;;17.80;11.40;;;;;;;;;;12982850;22;20431;-88
2023/11/28 06:24:53;;;;;;;18.75;12.00;;;;;;;;;;12982043;22;20443;-88
2023/11/28 06:29:57;;;;;;;24.15;15.07;;;;;;;;;;12981655;22;20975;-88
2023/11/28 06:34:59;;;;;;;23.65;14.20;;;;;;;;;;12954480;22;20476;-87
2023/11/28 06:40:02;;;;;;;25.25;14.02;;;;;;;;;;12981422;22;20355;-88
2023/11/28 06:45:07;;;;;;;23.55;14.43;;;;;;;;;;12982170;22;20413;-89
2023/11/28 06:50:10;;;;;;;25.73;14.67;;;;;;;;;;12984909;22;20406;-86
2023/11/28 06:55:12;;;;;;;22.80;14.07;;;;;;;;;;12999796;22;20484;-88
2023/11/28 07:00:17;;;;;;;19.63;13.18;;;;;;;;;;13017668;22;20447;-87
2023/11/28 07:05:20;;;;;;;22.48;13.95;;;;;;;;;;12985063;22;20470;-87
2023/11/28 08:18:05;;;;;;;25.27;17.60;;;;;;;;;;10511989;27;20362;-87
2023/11/28 08:23:07;;;;;;;25.63;15.85;;;;;;;;;;10476583;28;20407;-88
2023/11/28 08:28:10;;;;;;;23.85;14.60;;;;;;;;;;10458799;28;20443;-87
2023/11/28 08:33:14;;;;;;;26.58;15.95;;;;;;;;;;10470183;28;20496;-87
2023/11/28 08:38:16;;;;;;;23.20;14.88;;;;;;;;;;10461863;28;20920;-84
2023/11/28 08:43:18;;;;;;;25.92;14.43;;;;;;;;;;10472382;28;20564;-87
2023/11/28 08:48:22;;;;;;;24.80;14.98;;;;;;;;;;10474288;28;20481;-87
2023/11/28 08:53:25;;;;;;;23.27;14.43;;;;;;;;;;10474950;28;20523;-86
2023/11/28 08:58:28;;;;;;;24.73;14.85;;;;;;;;;;10467955;28;20412;-87
2023/11/28 09:03:31;;;;;;;22.20;14.82;;;;;;;;;;10468243;28;20466;-87
2023/11/28 09:08:34;;;;;;;24.48;14.82;;;;;;;;;;10466504;28;20458;-87
2023/11/28 09:13:36;;;;;;;23.07;13.60;;;;;;;;;;10468154;28;20453;-87
2023/11/28 09:18:40;;;;;;;21.95;13.50;;;;;;;;;;10445305;28;20458;-87
2023/11/28 09:23:42;;;;;;;21.20;13.23;;;;;;;;;;10446969;28;20446;-87
2023/11/28 09:28:45;;;;;;;22.80;14.48;;;;;;;;;;10439050;28;20480;-87
2023/11/28 09:33:48;;;;;;;22.77;14.52;;;;;;;;;;10440465;28;20422;-87
2023/11/28 09:38:51;;;;;;;22.88;15.02;;;;;;;;;;10444403;28;20448;-86
2023/11/28 09:43:54;;;;;;;26.20;15.97;;;;;;;;;;10438452;28;20413;-87
2023/11/28 09:49:00;;;;;;;23.35;15.60;;;;;;;;;;10438288;28;20437;-87
2023/11/28 09:54:03;;;;;;;26.80;15.93;;;;;;;;;;10429393;28;20433;-86
2023/11/28 09:59:11;;;;;;;26.40;15.40;;;;;;;;;;10437645;28;20489;-87
2023/11/28 10:04:15;;;;;;;26.05;16.00;;;;;;;;;;10441470;28;20577;-87
2023/11/28 10:09:19;;;;;;;23.20;14.57;;;;;;;;;;10450736;28;20433;-87
2023/11/28 10:14:21;;;;;;;24.65;14.88;;;;;;;;;;10442695;28;20464;-86
2023/11/28 10:19:25;;;;;;;23.83;14.90;;;;;;;;;;10433909;28;20469;-87
2023/11/28 10:24:28;;;;;;;25.10;14.50;;;;;;;;;;10437853;28;20521;-87
2023/11/28 10:29:33;;;;;;;25.67;14.02;;;;;;;;;;10430139;28;20420;-87
2023/11/28 10:34:37;;;;;;;25.33;15.38;;;;;;;;;;10435782;28;20467;-87
2023/11/28 10:39:40;;;;;;;23.03;14.50;;;;;;;;;;10442386;28;20442;-88
2023/11/28 10:44:42;;;;;;;20.87;14.10;;;;;;;;;;10441534;28;20411;-87
2023/11/28 10:49:46;;;;;;;22.63;13.17;;;;;;;;;;10449223;28;20446;-88
2023/11/28 10:54:53;;;;;;;24.23;13.57;;;;;;;;;;10441999;28;20421;-87
2023/11/28 11:00:02;;;;;;;23.60;12.57;;;;;;;;;;10440732;28;20522;-87
2023/11/28 11:05:06;;;;;;;21.53;13.00;;;;;;;;;;10438356;28;20526;-87
2023/11/28 11:10:10;;;;;;;20.92;12.48;;;;;;;;;;10434516;28;20461;-87
2023/11/28 11:15:26;;;;;;;21.17;13.20;;;;;;;;;;10443714;28;20524;-87
2023/11/28 11:20:33;;;;;;;19.60;11.90;;;;;;;;;;10435467;28;20427;-87
2023/11/28 11:25:40;;;;;;;23.75;12.35;;;;;;;;;;10441119;28;20475;-87
2023/11/28 11:30:43;;;;;;;20.55;12.38;;;;;;;;;;10439622;28;20501;-87
2023/11/28 11:36:18;;;;;;;22.35;13.50;;;;;;;;;;10441885;28;20455;-87
2023/11/28 11:41:21;;;;;;;20.75;13.75;;;;;;;;;;10366318;28;20469;-87
2023/11/28 11:46:28;;;;;;;23.40;13.15;;;;;;;;;;10447672;28;20413;-87
2023/11/28 11:51:33;;;;;;;20.27;13.03;;;;;;;;;;10442112;28;20460;-87
2023/11/28 11:56:35;;;;;;;20.07;12.63;;;;;;;;;;10432511;28;20467;-88
2023/11/28 12:01:37;;;;;;;23.48;12.82;;;;;;;;;;10433038;28;20508;-87
2023/11/28 12:06:41;;;;;;;19.90;12.90;;;;;;;;;;10442304;28;20477;-88
2023/11/28 12:11:44;;;;;;;18.38;12.38;;;;;;;;;;10438085;28;20419;-86
2023/11/28 12:16:46;;;;;;;20.15;12.32;;;;;;;;;;10437719;28;20474;-87
2023/11/28 12:21:50;;;;;;;19.10;11.97;;;;;;;;;;10437076;28;20425;-85
2023/11/28 12:26:53;;;;;;;20.23;13.27;;;;;;;;;;10434074;28;20830;-88
2023/11/28 12:31:55;;;;;;;19.63;11.73;;;;;;;;;;10434542;28;20454;-87
2023/11/28 12:37:00;;;;;;;20.02;11.88;;;;;;;;;;10437599;28;20503;-87
2023/11/28 12:42:05;;;;;;;18.30;11.80;;;;;;;;;;10443376;28;20404;-87
2023/11/28 12:47:10;;;;;;;19.73;11.55;;;;;;;;;;10443133;28;20422;-88
2023/11/28 12:52:16;;;;;;;18.33;11.45;;;;;;;;;;10448155;28;20400;-87
2023/11/28 12:57:18;;;;;;;21.23;11.90;;;;;;;;;;10438501;28;20460;-88
2023/11/28 13:02:21;;;;;;;16.60;11.57;;;;;;;;;;10442580;28;20411;-88
2023/11/28 13:07:25;;;;;;;18.43;11.37;;;;;;;;;;10445751;28;20403;-88
2023/11/28 13:12:28;;;;;;;17.88;11.73;;;;;;;;;;10442385;28;20421;-87
2023/11/28 13:17:30;;;;;;;20.05;12.95;;;;;;;;;;10444736;28;20409;-87
2023/11/28 13:22:34;;;;;;;20.13;13.03;;;;;;;;;;10447703;28;20418;-88
2023/11/28 13:27:37;;;;;;;19.07;12.67;;;;;;;;;;10431532;28;20490;-88
2023/11/28 13:32:39;;;;;;;21.73;12.65;;;;;;;;;;10434545;28;20516;-88
2023/11/28 13:37:43;;;;;;;19.17;12.30;;;;;;;;;;10426607;28;20444;-88
2023/11/28 13:42:46;;;;;;;20.73;12.63;;;;;;;;;;10425708;28;20490;-88
2023/11/28 13:47:48;;;;;;;18.83;12.47;;;;;;;;;;10440273;28;20794;-88
2023/11/28 13:52:52;;;;;;;19.17;13.17;;;;;;;;;;10435495;28;20419;-88
2023/11/28 13:57:54;;;;;;;19.90;13.23;;;;;;;;;;10439774;28;20443;-88
2023/11/28 14:02:58;;;;;;;18.08;12.25;;;;;;;;;;10433548;28;20495;-87
2023/11/28 14:08:02;;;;;;;20.80;13.00;;;;;;;;;;10444952;28;20473;-87
2023/11/28 14:13:05;;;;;;;21.52;14.38;;;;;;;;;;10440235;28;20415;-87
2023/11/28 14:18:07;;;;;;;20.52;14.23;;;;;;;;;;10437102;28;20425;-88
2023/11/28 14:23:11;;;;;;;19.08;13.23;;;;;;;;;;10433729;28;20416;-85
2023/11/28 14:28:13;;;;;;;23.93;14.67;;;;;;;;;;10435064;28;20776;-88
2023/11/28 14:33:16;;;;;;;19.73;14.33;;;;;;;;;;10426987;28;20407;-87
2023/11/28 14:38:20;;;;;;;26.37;16.53;;;;;;;;;;10427319;28;20483;-88
2023/11/28 14:43:22;;;;;;;29.15;18.17;;;;;;;;;;10430010;28;20899;-87
2023/11/28 14:48:25;;;;;;;28.20;18.85;;;;;;;;;;10440385;28;20400;-86
2023/11/28 14:53:28;;;;;;;29.52;18.75;;;;;;;;;;10439943;28;20788;-86
2023/11/28 14:58:31;;;;;;;36.15;21.38;;;;;;;;;;10432680;28;20464;-86
2023/11/28 15:03:33;;;;;;;34.85;20.45;;;;;;;;;;10427811;28;20408;-87
2023/11/28 15:08:40;;;;;;;30.83;20.30;;;;;;;;;;10432004;28;20473;-86
2023/11/28 15:13:42;;;;;;;35.20;20.50;;;;;;;;;;10431077;28;20509;-86
2023/11/28 15:18:46;;;;;;;33.08;21.20;;;;;;;;;;10431109;28;20516;-87
2023/11/28 15:23:50;;;;;;;34.28;20.13;;;;;;;;;;10427386;28;20470;-85
2023/11/28 15:28:52;;;;;;;32.30;19.60;;;;;;;;;;10429917;28;20463;-87
2023/11/28 15:33:55;;;;;;;32.03;20.10;;;;;;;;;;10429463;28;20485;-85
2023/11/28 15:38:58;;;;;;;38.53;22.38;;;;;;;;;;10436540;28;20497;-85
2023/11/28 15:44:01;;;;;;;40.80;21.90;;;;;;;;;;10437042;28;20409;-86
2023/11/28 15:49:03;;;;;;;37.27;21.80;;;;;;;;;;10455530;28;20453;-86
2023/11/28 15:54:07;;;;;;;39.10;20.92;;;;;;;;;;10440585;28;20759;-86
2023/11/28 15:59:10;;;;;;;42.15;23.98;;;;;;;;;;10433660;28;20696;-86
2023/11/28 16:04:13;;;;;;;36.73;21.90;;;;;;;;;;10433227;28;20490;-86
2023/11/28 16:09:17;;;;;;;56.60;29.73;;;;;;;;;;10436094;28;20407;-85
2023/11/28 16:14:20;;;;;;;107.45;51.20;;;;;;;;;;10429744;28;20415;-86
2023/11/28 16:19:22;;;;;;;76.03;37.83;;;;;;;;;;10432305;28;20420;-88
2023/11/28 16:24:26;;;;;;;68.28;37.20;;;;;;;;;;10432880;28;20479;-86
2023/11/28 16:29:32;;;;;;;42.40;25.17;;;;;;;;;;10443100;28;20443;-88
2023/11/28 16:34:35;;;;;;;49.17;28.83;;;;;;;;;;10439959;28;20404;-86
2023/11/28 16:39:41;;;;;;;46.05;27.45;;;;;;;;;;10440585;28;20463;-87
2023/11/28 16:44:44;;;;;;;44.67;25.98;;;;;;;;;;10446830;28;20438;-87
2023/11/28 16:49:47;;;;;;;44.17;24.25;;;;;;;;;;10440793;28;20409;-86
2023/11/28 16:54:51;;;;;;;40.33;24.35;;;;;;;;;;10449095;28;20404;-86
2023/11/28 16:59:54;;;;;;;37.13;23.30;;;;;;;;;;10432556;28;21210;-86
2023/11/28 17:04:56;;;;;;;36.63;22.40;;;;;;;;;;10443377;28;20943;-86
2023/11/28 17:10:00;;;;;;;34.35;21.23;;;;;;;;;;10448075;28;20418;-88
2023/11/28 17:15:02;;;;;;;39.75;23.13;;;;;;;;;;10446130;28;20496;-85
2023/11/28 17:20:06;;;;;;;42.80;24.17;;;;;;;;;;10439174;28;20513;-86
2023/11/28 17:25:10;;;;;;;54.05;30.38;;;;;;;;;;10432984;28;20444;-86
2023/11/28 17:30:13;;;;;;;51.75;29.58;;;;;;;;;;10430580;28;20481;-86
2023/11/28 17:35:16;;;;;;;63.50;36.35;;;;;;;;;;10427636;28;20415;-86
2023/11/28 17:40:20;;;;;;;64.10;36.58;;;;;;;;;;10435581;28;20457;-86
2023/11/28 17:45:22;;;;;;;58.15;30.90;;;;;;;;;;10448632;28;20408;-86
2023/11/28 17:50:28;;;;;;;52.50;30.35;;;;;;;;;;10435286;28;20423;-85
2023/11/28 17:55:37;;;;;;;43.30;27.08;;;;;;;;;;10442102;28;20407;-85
2023/11/28 18:00:41;;;;;;;102.00;49.13;;;;;;;;;;10435935;28;20473;-87
2023/11/28 18:05:43;;;;;;;53.35;31.67;;;;;;;;;;10431526;28;20980;-87
2023/11/28 18:10:48;;;;;;;74.13;43.27;;;;;;;;;;10426116;28;20739;-87
2023/11/28 18:15:51;;;;;;;57.08;33.83;;;;;;;;;;10428316;28;20477;-85
2023/11/28 18:20:54;;;;;;;52.53;31.55;;;;;;;;;;10429258;28;20434;-86
2023/11/28 18:26:02;;;;;;;53.57;30.97;;;;;;;;;;10434634;28;20493;-87
2023/11/28 18:31:05;;;;;;;47.67;28.38;;;;;;;;;;10423797;28;25120;-86
2023/11/28 18:36:09;;;;;;;48.58;27.73;;;;;;;;;;10420265;28;20434;-86
2023/11/28 18:41:13;;;;;;;55.60;32.30;;;;;;;;;;10441402;28;20413;-86
2023/11/28 18:46:17;;;;;;;56.63;33.80;;;;;;;;;;10436166;28;20420;-87
2023/11/28 18:51:20;;;;;;;54.63;32.47;;;;;;;;;;10417702;28;20442;-87
2023/11/28 18:56:26;;;;;;;53.80;32.25;;;;;;;;;;10420603;28;20492;-86
2023/11/28 19:01:31;;;;;;;59.50;33.30;;;;;;;;;;10426787;28;20455;-87
2023/11/28 19:06:34;;;;;;;62.10;36.47;;;;;;;;;;10423804;28;20456;-87
2023/11/28 19:11:38;;;;;;;63.73;33.13;;;;;;;;;;10430314;28;20446;-90
2023/11/28 19:16:41;;;;;;;62.00;33.10;;;;;;;;;;10441421;28;20414;-92
2023/11/28 19:21:45;;;;;;;54.90;33.15;;;;;;;;;;10428125;28;20438;-92
2023/11/28 19:26:51;;;;;;;59.43;33.80;;;;;;;;;;10432646;28;20958;-92
2023/11/28 19:31:53;;;;;;;61.45;37.90;;;;;;;;;;10435131;28;20418;-91
2023/11/28 19:36:56;;;;;;;61.63;34.10;;;;;;;;;;10460704;28;20410;-92
2023/11/28 19:42:00;;;;;;;55.80;34.33;;;;;;;;;;10437794;28;20420;-91
2023/11/28 19:47:06;;;;;;;61.77;36.27;;;;;;;;;;10421853;28;21009;-92
2023/11/28 19:52:08;;;;;;;64.63;36.00;;;;;;;;;;10438990;28;20428;-91
2023/11/28 19:57:12;;;;;;;60.33;36.13;;;;;;;;;;10425528;28;20416;-92
2023/11/28 20:02:14;;;;;;;75.35;43.80;;;;;;;;;;10437392;28;20469;-91
2023/11/28 20:07:18;;;;;;;66.47;39.08;;;;;;;;;;10439874;28;20444;-91
2023/11/28 20:12:22;;;;;;;62.90;37.20;;;;;;;;;;10446883;28;20418;-92
2023/11/28 20:17:24;;;;;;;63.88;37.20;;;;;;;;;;10445828;28;20421;-92
2023/11/28 20:22:27;;;;;;;62.67;35.55;;;;;;;;;;10426039;28;20426;-91
2023/11/28 20:27:31;;;;;;;62.57;35.73;;;;;;;;;;10428587;28;20492;-91
2023/11/28 20:32:33;;;;;;;59.70;35.00;;;;;;;;;;10462412;28;20439;-88
2023/11/28 20:37:35;;;;;;;63.17;35.80;;;;;;;;;;10455835;28;20411;-92
2023/11/28 20:42:39;;;;;;;63.75;36.75;;;;;;;;;;10438690;28;20430;-90
2023/11/28 20:47:42;;;;;;;55.40;34.35;;;;;;;;;;10433715;28;20420;-92
2023/11/28 20:52:45;;;;;;;62.88;35.10;;;;;;;;;;10443896;28;20408;-92
2023/11/28 20:57:48;;;;;;;63.80;36.43;;;;;;;;;;10427340;28;20973;-92
2023/11/28 21:02:51;;;;;;;60.15;34.45;;;;;;;;;;10439387;28;20417;-90
2023/11/28 21:07:53;;;;;;;55.20;32.50;;;;;;;;;;10438163;28;20543;-92
2023/11/28 21:12:57;;;;;;;54.15;33.33;;;;;;;;;;10437107;28;20425;-93
2023/11/28 21:17:59;;;;;;;52.15;32.67;;;;;;;;;;10420999;28;20449;-90
2023/11/28 21:23:02;;;;;;;55.00;32.70;;;;;;;;;;10443034;28;20407;-90
2023/11/28 21:28:06;;;;;;;72.20;39.60;;;;;;;;;;10452901;28;20444;-91
2023/11/28 21:33:10;;;;;;;58.08;34.20;;;;;;;;;;10482493;28;20495;-91
2023/11/28 21:38:12;;;;;;;75.78;43.92;;;;;;;;;;10446788;28;20425;-91
2023/11/28 21:43:21;;;;;;;65.13;40.77;;;;;;;;;;10456811;28;20413;-91
2023/11/28 21:48:24;;;;;;;63.95;37.97;;;;;;;;;;10488888;28;25124;-91
2023/11/28 21:53:27;;;;;;;58.73;37.03;;;;;;;;;;10445217;28;20454;-91
2023/11/28 21:58:31;;;;;;;55.80;33.07;;;;;;;;;;10445665;28;20531;-90
2023/11/28 22:03:34;;;;;;;52.87;30.90;;;;;;;;;;10436703;28;20436;-91
2023/11/28 22:08:37;;;;;;;54.78;31.58;;;;;;;;;;10442370;28;20455;-92
2023/11/28 22:13:41;;;;;;;51.43;31.93;;;;;;;;;;10434891;28;20432;-93
2023/11/28 22:18:43;;;;;;;51.87;30.17;;;;;;;;;;10442613;28;20442;-92
2023/11/28 22:23:46;;;;;;;45.42;27.92;;;;;;;;;;10455770;28;20412;-92
2023/11/28 22:28:49;;;;;;;42.65;27.08;;;;;;;;;;10470456;28;20415;-91
2023/11/28 22:33:52;;;;;;;39.42;24.30;;;;;;;;;;10448777;28;20429;-92
2023/11/28 22:38:54;;;;;;;40.33;25.73;;;;;;;;;;10442488;28;20424;-93
2023/11/28 22:43:58;;;;;;;37.90;24.38;;;;;;;;;;10446667;28;21019;-92
2023/11/28 22:49:01;;;;;;;39.40;25.10;;;;;;;;;;10439047;28;20427;-92
2023/11/28 22:54:03;;;;;;;39.38;23.77;;;;;;;;;;10451502;28;20469;-91
2023/11/28 22:59:07;;;;;;;41.65;24.38;;;;;;;;;;10435379;28;21086;-92
2023/11/28 23:04:10;;;;;;;38.10;23.52;;;;;;;;;;10452647;28;20406;-92
2023/11/28 23:09:13;;;;;;;38.78;21.98;;;;;;;;;;10451745;28;20883;-92
2023/11/28 23:14:17;;;;;;;37.88;23.10;;;;;;;;;;10450603;28;20430;-92
2023/11/28 23:19:19;;;;;;;36.97;22.67;;;;;;;;;;10450709;28;21151;-92
2023/11/28 23:24:22;;;;;;;36.40;21.25;;;;;;;;;;10475026;28;20411;-92
2023/11/28 23:29:26;;;;;;;34.43;20.93;;;;;;;;;;10444003;28;20953;-92
2023/11/28 23:34:28;;;;;;;36.13;21.00;;;;;;;;;;10440512;28;20522;-92
2023/11/28 23:39:31;;;;;;;32.72;20.75;;;;;;;;;;10440254;28;20417;-92
2023/11/28 23:44:36;;;;;;;34.10;20.63;;;;;;;;;;10446682;28;20400;-92
2023/11/28 23:49:38;;;;;;;32.33;20.15;;;;;;;;;;10440782;28;20436;-93
2023/11/28 23:54:41;;;;;;;30.57;19.53;;;;;;;;;;10430871;28;20451;-92
2023/11/28 23:59:45;;;;;;;31.20;18.83;;;;;;;;;;10438644;28;20493;-92
